sensor_id;sensor_type;location;lat;lon;timestamp;temperature;humidity
51841;DHT22;37888;53.246;6.658;2023-09-19T00:00:45;14.50;99.90
51841;DHT22;37888;53.246;6.658;2023-09-19T00:03:12;14.60;99.90
51841;DHT22;37888;53.246;6.658;2023-09-19T00:05:39;14.50;99.90
51841;DHT22;37888;53.246;6.658;2023-09-19T00:08:05;14.50;99.90
51841;DHT22;37888;53.246;6.658;2023-09-19T00:10:34;14.40;99.90
51841;DHT22;37888;53.246;6.658;2023-09-19T00:13:05;14.50;99.90
51841;DHT22;37888;53.246;6.658;2023-09-19T00:15:40;14.40;99.90
51841;DHT22;37888;53.246;6.658;2023-09-19T00:18:09;14.40;99.90
51841;DHT22;37888;53.246;6.658;2023-09-19T00:20:38;14.40;99.90
51841;DHT22;37888;53.246;6.658;2023-09-19T00:23:05;14.40;99.90
51841;DHT22;37888;53.246;6.658;2023-09-19T00:25:31;14.30;99.90
51841;DHT22;37888;53.246;6.658;2023-09-19T00:27:57;14.30;99.90
51841;DHT22;37888;53.246;6.658;2023-09-19T00:30:23;14.30;99.90
51841;DHT22;37888;53.246;6.658;2023-09-19T00:32:50;14.30;99.90
51841;DHT22;37888;53.246;6.658;2023-09-19T00:35:23;14.30;99.90
51841;DHT22;37888;53.246;6.658;2023-09-19T00:37:49;14.30;99.90
51841;DHT22;37888;53.246;6.658;2023-09-19T00:40:16;14.30;99.90
51841;DHT22;37888;53.246;6.658;2023-09-19T00:42:46;14.30;99.90
51841;DHT22;37888;53.246;6.658;2023-09-19T00:45:14;14.30;99.90
51841;DHT22;37888;53.246;6.658;2023-09-19T00:47:42;14.30;99.90
51841;DHT22;37888;53.246;6.658;2023-09-19T00:50:10;14.20;99.90
51841;DHT22;37888;53.246;6.658;2023-09-19T00:52:40;14.20;99.90
51841;DHT22;37888;53.246;6.658;2023-09-19T00:57:39;14.40;99.90
51841;DHT22;37888;53.246;6.658;2023-09-19T01:00:07;14.50;99.90
51841;DHT22;37888;53.246;6.658;2023-09-19T01:02:34;14.10;99.90
51841;DHT22;37888;53.246;6.658;2023-09-19T01:07:30;14.10;99.90
51841;DHT22;37888;53.246;6.658;2023-09-19T01:10:03;14.00;99.90
51841;DHT22;37888;53.246;6.658;2023-09-19T01:12:58;14.00;99.90
51841;DHT22;37888;53.246;6.658;2023-09-19T01:18:35;13.90;99.90
51841;DHT22;37888;53.246;6.658;2023-09-19T01:21:21;13.90;99.90
51841;DHT22;37888;53.246;6.658;2023-09-19T01:30:20;13.70;99.90
51841;DHT22;37888;53.246;6.658;2023-09-19T01:32:52;13.70;99.90
51841;DHT22;37888;53.246;6.658;2023-09-19T01:35:21;13.70;99.90
51841;DHT22;37888;53.246;6.658;2023-09-19T01:37:47;13.50;99.90
51841;DHT22;37888;53.246;6.658;2023-09-19T01:40:19;13.60;99.90
51841;DHT22;37888;53.246;6.658;2023-09-19T01:43:02;13.60;99.90
51841;DHT22;37888;53.246;6.658;2023-09-19T01:51:41;13.50;99.90
51841;DHT22;37888;53.246;6.658;2023-09-19T01:54:12;13.50;99.90
51841;DHT22;37888;53.246;6.658;2023-09-19T01:57:09;13.50;99.90
51841;DHT22;37888;53.246;6.658;2023-09-19T01:59:45;13.40;99.90
51841;DHT22;37888;53.246;6.658;2023-09-19T02:02:15;13.40;99.90
51841;DHT22;37888;53.246;6.658;2023-09-19T02:04:44;13.40;99.90
51841;DHT22;37888;53.246;6.658;2023-09-19T02:07:10;13.40;99.90
51841;DHT22;37888;53.246;6.658;2023-09-19T02:09:36;12.80;99.90
51841;DHT22;37888;53.246;6.658;2023-09-19T02:12:08;13.30;99.90
51841;DHT22;37888;53.246;6.658;2023-09-19T02:14:34;13.30;99.90
51841;DHT22;37888;53.246;6.658;2023-09-19T02:17:02;13.30;99.90
51841;DHT22;37888;53.246;6.658;2023-09-19T02:19:33;13.30;99.90
51841;DHT22;37888;53.246;6.658;2023-09-19T02:22:00;13.30;99.90
51841;DHT22;37888;53.246;6.658;2023-09-19T02:24:28;13.30;99.90
51841;DHT22;37888;53.246;6.658;2023-09-19T02:26:56;13.30;99.90
51841;DHT22;37888;53.246;6.658;2023-09-19T02:29:25;13.20;99.90
51841;DHT22;37888;53.246;6.658;2023-09-19T02:31:52;13.20;99.90
51841;DHT22;37888;53.246;6.658;2023-09-19T02:34:22;13.20;99.90
51841;DHT22;37888;53.246;6.658;2023-09-19T02:36:48;13.20;99.90
51841;DHT22;37888;53.246;6.658;2023-09-19T02:39:14;13.20;99.90
51841;DHT22;37888;53.246;6.658;2023-09-19T02:41:40;13.20;99.90
51841;DHT22;37888;53.246;6.658;2023-09-19T02:44:07;13.20;99.90
51841;DHT22;37888;53.246;6.658;2023-09-19T02:46:34;13.10;99.90
51841;DHT22;37888;53.246;6.658;2023-09-19T02:49:02;13.10;99.90
51841;DHT22;37888;53.246;6.658;2023-09-19T02:51:54;13.10;99.90
51841;DHT22;37888;53.246;6.658;2023-09-19T02:54:21;13.10;99.90
51841;DHT22;37888;53.246;6.658;2023-09-19T02:57:05;13.10;99.90
51841;DHT22;37888;53.246;6.658;2023-09-19T02:59:35;13.00;99.90
51841;DHT22;37888;53.246;6.658;2023-09-19T03:02:21;13.00;99.90
51841;DHT22;37888;53.246;6.658;2023-09-19T03:04:49;13.00;99.90
51841;DHT22;37888;53.246;6.658;2023-09-19T03:07:16;13.00;99.90
51841;DHT22;37888;53.246;6.658;2023-09-19T03:09:44;13.00;99.90
51841;DHT22;37888;53.246;6.658;2023-09-19T03:12:12;13.00;99.90
51841;DHT22;37888;53.246;6.658;2023-09-19T03:14:41;13.00;99.90
51841;DHT22;37888;53.246;6.658;2023-09-19T03:17:09;13.00;99.90
51841;DHT22;37888;53.246;6.658;2023-09-19T03:19:35;13.10;99.90
51841;DHT22;37888;53.246;6.658;2023-09-19T03:22:07;13.00;99.90
51841;DHT22;37888;53.246;6.658;2023-09-19T03:24:34;13.10;99.90
51841;DHT22;37888;53.246;6.658;2023-09-19T03:29:28;13.00;99.90
51841;DHT22;37888;53.246;6.658;2023-09-19T03:31:57;13.00;99.90
51841;DHT22;37888;53.246;6.658;2023-09-19T03:34:23;13.00;99.90
51841;DHT22;37888;53.246;6.658;2023-09-19T03:36:58;12.70;99.90
51841;DHT22;37888;53.246;6.658;2023-09-19T03:39:33;13.00;99.90
51841;DHT22;37888;53.246;6.658;2023-09-19T03:41:59;12.90;99.90
51841;DHT22;37888;53.246;6.658;2023-09-19T03:44:25;12.90;99.90
51841;DHT22;37888;53.246;6.658;2023-09-19T03:46:51;12.90;99.90
51841;DHT22;37888;53.246;6.658;2023-09-19T03:49:16;12.90;99.90
51841;DHT22;37888;53.246;6.658;2023-09-19T03:51:42;12.90;99.90
51841;DHT22;37888;53.246;6.658;2023-09-19T03:54:08;12.80;99.90
51841;DHT22;37888;53.246;6.658;2023-09-19T03:56:34;12.80;99.90
51841;DHT22;37888;53.246;6.658;2023-09-19T03:59:00;12.80;99.90
51841;DHT22;37888;53.246;6.658;2023-09-19T04:01:28;12.80;99.90
51841;DHT22;37888;53.246;6.658;2023-09-19T04:03:58;12.90;99.90
51841;DHT22;37888;53.246;6.658;2023-09-19T04:06:27;11.70;99.90
51841;DHT22;37888;53.246;6.658;2023-09-19T04:08:53;12.70;99.90
51841;DHT22;37888;53.246;6.658;2023-09-19T04:11:21;12.80;99.90
51841;DHT22;37888;53.246;6.658;2023-09-19T04:13:46;12.80;99.90
51841;DHT22;37888;53.246;6.658;2023-09-19T04:16:13;12.80;99.90
51841;DHT22;37888;53.246;6.658;2023-09-19T04:18:39;12.80;99.90
51841;DHT22;37888;53.246;6.658;2023-09-19T04:21:08;12.90;99.90
51841;DHT22;37888;53.246;6.658;2023-09-19T04:23:35;12.90;99.90
51841;DHT22;37888;53.246;6.658;2023-09-19T04:26:06;13.00;99.90
51841;DHT22;37888;53.246;6.658;2023-09-19T04:28:50;12.90;99.90
51841;DHT22;37888;53.246;6.658;2023-09-19T04:31:17;13.00;99.90
51841;DHT22;37888;53.246;6.658;2023-09-19T04:33:47;12.90;99.90
51841;DHT22;37888;53.246;6.658;2023-09-19T04:36:13;13.00;99.90
51841;DHT22;37888;53.246;6.658;2023-09-19T04:38:39;12.40;99.90
51841;DHT22;37888;53.246;6.658;2023-09-19T04:41:05;13.00;99.90
51841;DHT22;37888;53.246;6.658;2023-09-19T04:43:31;13.00;99.90
51841;DHT22;37888;53.246;6.658;2023-09-19T04:45:57;13.00;99.90
51841;DHT22;37888;53.246;6.658;2023-09-19T04:48:26;13.00;99.90
51841;DHT22;37888;53.246;6.658;2023-09-19T04:50:51;13.00;99.90
51841;DHT22;37888;53.246;6.658;2023-09-19T04:53:18;13.00;99.90
51841;DHT22;37888;53.246;6.658;2023-09-19T04:55:51;13.10;99.90
51841;DHT22;37888;53.246;6.658;2023-09-19T04:58:22;13.10;99.90
51841;DHT22;37888;53.246;6.658;2023-09-19T05:00:50;13.10;99.90
51841;DHT22;37888;53.246;6.658;2023-09-19T05:03:17;13.10;99.90
51841;DHT22;37888;53.246;6.658;2023-09-19T05:05:48;13.00;99.90
51841;DHT22;37888;53.246;6.658;2023-09-19T05:08:15;13.10;99.90
51841;DHT22;37888;53.246;6.658;2023-09-19T05:10:41;13.10;99.90
51841;DHT22;37888;53.246;6.658;2023-09-19T05:13:10;13.10;99.90
51841;DHT22;37888;53.246;6.658;2023-09-19T05:15:37;13.10;99.90
51841;DHT22;37888;53.246;6.658;2023-09-19T05:18:10;13.20;99.90
51841;DHT22;37888;53.246;6.658;2023-09-19T05:20:36;13.20;99.90
51841;DHT22;37888;53.246;6.658;2023-09-19T05:23:07;13.10;99.90
51841;DHT22;37888;53.246;6.658;2023-09-19T05:25:42;13.20;99.90
51841;DHT22;37888;53.246;6.658;2023-09-19T05:28:11;13.20;99.90
51841;DHT22;37888;53.246;6.658;2023-09-19T05:30:43;13.20;99.90
51841;DHT22;37888;53.246;6.658;2023-09-19T05:36:20;13.30;99.90
51841;DHT22;37888;53.246;6.658;2023-09-19T05:38:46;13.30;99.90
51841;DHT22;37888;53.246;6.658;2023-09-19T05:41:15;13.30;99.90
51841;DHT22;37888;53.246;6.658;2023-09-19T05:43:42;13.40;99.90
51841;DHT22;37888;53.246;6.658;2023-09-19T05:46:08;13.40;99.90
51841;DHT22;37888;53.246;6.658;2023-09-19T05:48:34;13.40;99.90
51841;DHT22;37888;53.246;6.658;2023-09-19T05:50:59;13.40;99.90
51841;DHT22;37888;53.246;6.658;2023-09-19T05:53:26;13.40;99.90
51841;DHT22;37888;53.246;6.658;2023-09-19T05:55:52;13.40;99.90
51841;DHT22;37888;53.246;6.658;2023-09-19T05:58:21;13.40;99.90
51841;DHT22;37888;53.246;6.658;2023-09-19T06:00:47;13.50;99.90
51841;DHT22;37888;53.246;6.658;2023-09-19T06:03:14;13.40;99.90
51841;DHT22;37888;53.246;6.658;2023-09-19T06:05:40;13.50;99.90
51841;DHT22;37888;53.246;6.658;2023-09-19T06:08:07;13.50;99.90
51841;DHT22;37888;53.246;6.658;2023-09-19T06:10:36;13.50;99.90
51841;DHT22;37888;53.246;6.658;2023-09-19T06:13:05;13.50;99.90
51841;DHT22;37888;53.246;6.658;2023-09-19T06:15:54;13.50;99.90
51841;DHT22;37888;53.246;6.658;2023-09-19T06:18:36;13.60;99.90
51841;DHT22;37888;53.246;6.658;2023-09-19T06:21:02;13.60;99.90
51841;DHT22;37888;53.246;6.658;2023-09-19T06:23:35;13.60;99.90
51841;DHT22;37888;53.246;6.658;2023-09-19T06:26:01;13.40;99.90
51841;DHT22;37888;53.246;6.658;2023-09-19T06:28:30;14.30;99.90
51841;DHT22;37888;53.246;6.658;2023-09-19T06:30:59;13.70;99.90
51841;DHT22;37888;53.246;6.658;2023-09-19T06:33:26;13.70;99.90
51841;DHT22;37888;53.246;6.658;2023-09-19T06:35:52;13.70;99.90
51841;DHT22;37888;53.246;6.658;2023-09-19T06:38:24;13.80;99.90
51841;DHT22;37888;53.246;6.658;2023-09-19T06:40:50;13.90;99.90
51841;DHT22;37888;53.246;6.658;2023-09-19T06:43:16;13.90;99.90
51841;DHT22;37888;53.246;6.658;2023-09-19T06:45:43;13.90;99.90
51841;DHT22;37888;53.246;6.658;2023-09-19T06:48:08;14.00;99.90
51841;DHT22;37888;53.246;6.658;2023-09-19T06:50:35;13.90;99.90
51841;DHT22;37888;53.246;6.658;2023-09-19T06:53:01;14.10;99.90
51841;DHT22;37888;53.246;6.658;2023-09-19T06:55:28;14.10;99.90
51841;DHT22;37888;53.246;6.658;2023-09-19T06:57:56;13.50;99.90
51841;DHT22;37888;53.246;6.658;2023-09-19T07:00:23;14.20;99.90
51841;DHT22;37888;53.246;6.658;2023-09-19T07:03:02;14.30;99.90
51841;DHT22;37888;53.246;6.658;2023-09-19T07:05:34;14.30;99.90
51841;DHT22;37888;53.246;6.658;2023-09-19T07:08:07;14.40;99.90
51841;DHT22;37888;53.246;6.658;2023-09-19T07:10:34;14.50;99.90
51841;DHT22;37888;53.246;6.658;2023-09-19T07:13:04;14.50;99.90
51841;DHT22;37888;53.246;6.658;2023-09-19T07:15:32;14.70;99.90
51841;DHT22;37888;53.246;6.658;2023-09-19T07:18:02;14.80;99.90
51841;DHT22;37888;53.246;6.658;2023-09-19T07:20:28;14.90;99.90
51841;DHT22;37888;53.246;6.658;2023-09-19T07:22:57;15.00;99.90
51841;DHT22;37888;53.246;6.658;2023-09-19T07:25:27;15.00;99.90
51841;DHT22;37888;53.246;6.658;2023-09-19T07:27:55;15.10;99.90
51841;DHT22;37888;53.246;6.658;2023-09-19T07:30:20;15.20;99.90
51841;DHT22;37888;53.246;6.658;2023-09-19T07:32:47;15.30;99.90
51841;DHT22;37888;53.246;6.658;2023-09-19T07:35:13;15.30;99.90
51841;DHT22;37888;53.246;6.658;2023-09-19T07:37:40;14.90;99.90
51841;DHT22;37888;53.246;6.658;2023-09-19T07:40:06;15.30;99.90
51841;DHT22;37888;53.246;6.658;2023-09-19T07:42:33;15.40;99.90
51841;DHT22;37888;53.246;6.658;2023-09-19T07:45:03;15.40;99.90
51841;DHT22;37888;53.246;6.658;2023-09-19T07:47:29;15.60;99.90
51841;DHT22;37888;53.246;6.658;2023-09-19T07:49:56;15.70;99.90
51841;DHT22;37888;53.246;6.658;2023-09-19T07:52:21;16.00;99.90
51841;DHT22;37888;53.246;6.658;2023-09-19T07:54:48;16.20;99.90
51841;DHT22;37888;53.246;6.658;2023-09-19T07:57:15;16.40;99.90
51841;DHT22;37888;53.246;6.658;2023-09-19T07:59:41;16.60;99.90
51841;DHT22;37888;53.246;6.658;2023-09-19T08:02:08;16.60;99.90
51841;DHT22;37888;53.246;6.658;2023-09-19T08:04:35;16.70;99.90
51841;DHT22;37888;53.246;6.658;2023-09-19T08:07:01;16.80;99.90
51841;DHT22;37888;53.246;6.658;2023-09-19T08:09:29;16.80;99.90
51841;DHT22;37888;53.246;6.658;2023-09-19T08:11:59;17.00;99.90
51841;DHT22;37888;53.246;6.658;2023-09-19T08:14:28;17.30;99.90
51841;DHT22;37888;53.246;6.658;2023-09-19T08:16:58;17.80;99.90
51841;DHT22;37888;53.246;6.658;2023-09-19T08:19:24;18.40;99.90
51841;DHT22;37888;53.246;6.658;2023-09-19T08:21:55;19.20;99.90
51841;DHT22;37888;53.246;6.658;2023-09-19T08:24:27;19.20;99.90
51841;DHT22;37888;53.246;6.658;2023-09-19T08:26:58;19.40;99.90
51841;DHT22;37888;53.246;6.658;2023-09-19T08:29:25;19.90;99.90
51841;DHT22;37888;53.246;6.658;2023-09-19T08:31:55;20.20;99.90
51841;DHT22;37888;53.246;6.658;2023-09-19T08:34:25;20.10;99.90
51841;DHT22;37888;53.246;6.658;2023-09-19T08:36:55;19.90;99.90
51841;DHT22;37888;53.246;6.658;2023-09-19T08:39:24;19.40;99.90
51841;DHT22;37888;53.246;6.658;2023-09-19T08:41:56;19.10;99.90
51841;DHT22;37888;53.246;6.658;2023-09-19T08:44:22;18.90;99.90
51841;DHT22;37888;53.246;6.658;2023-09-19T08:46:54;18.90;99.90
51841;DHT22;37888;53.246;6.658;2023-09-19T08:49:32;18.80;99.90
51841;DHT22;37888;53.246;6.658;2023-09-19T08:52:08;18.80;99.90
51841;DHT22;37888;53.246;6.658;2023-09-19T08:54:38;18.80;99.90
51841;DHT22;37888;53.246;6.658;2023-09-19T08:57:08;18.70;99.90
51841;DHT22;37888;53.246;6.658;2023-09-19T08:59:40;18.70;99.90
51841;DHT22;37888;53.246;6.658;2023-09-19T09:02:14;18.60;99.90
51841;DHT22;37888;53.246;6.658;2023-09-19T09:04:45;18.40;99.90
51841;DHT22;37888;53.246;6.658;2023-09-19T09:07:14;18.30;99.90
51841;DHT22;37888;53.246;6.658;2023-09-19T09:09:44;18.10;99.90
51841;DHT22;37888;53.246;6.658;2023-09-19T09:12:12;18.00;99.90
51841;DHT22;37888;53.246;6.658;2023-09-19T09:14:47;17.90;99.90
51841;DHT22;37888;53.246;6.658;2023-09-19T09:17:17;18.00;99.90
51841;DHT22;37888;53.246;6.658;2023-09-19T09:19:46;17.90;99.90
51841;DHT22;37888;53.246;6.658;2023-09-19T09:22:12;17.80;99.90
51841;DHT22;37888;53.246;6.658;2023-09-19T09:24:52;17.80;99.90
51841;DHT22;37888;53.246;6.658;2023-09-19T09:27:19;17.80;99.90
51841;DHT22;37888;53.246;6.658;2023-09-19T09:29:50;17.80;99.90
51841;DHT22;37888;53.246;6.658;2023-09-19T09:32:27;17.90;99.90
51841;DHT22;37888;53.246;6.658;2023-09-19T09:34:56;17.90;99.90
51841;DHT22;37888;53.246;6.658;2023-09-19T09:37:24;18.00;99.90
51841;DHT22;37888;53.246;6.658;2023-09-19T09:42:34;18.10;99.90
51841;DHT22;37888;53.246;6.658;2023-09-19T09:47:45;18.00;99.90
51841;DHT22;37888;53.246;6.658;2023-09-19T09:50:33;17.90;99.90
51841;DHT22;37888;53.246;6.658;2023-09-19T09:53:24;17.80;99.90
51841;DHT22;37888;53.246;6.658;2023-09-19T09:56:09;17.70;99.90
51841;DHT22;37888;53.246;6.658;2023-09-19T09:58:36;17.70;99.90
51841;DHT22;37888;53.246;6.658;2023-09-19T10:01:03;17.80;99.90
51841;DHT22;37888;53.246;6.658;2023-09-19T10:03:41;17.90;99.90
51841;DHT22;37888;53.246;6.658;2023-09-19T10:06:14;18.00;99.90
51841;DHT22;37888;53.246;6.658;2023-09-19T10:09:01;18.20;99.90
51841;DHT22;37888;53.246;6.658;2023-09-19T10:11:45;18.40;99.90
51841;DHT22;37888;53.246;6.658;2023-09-19T10:14:12;18.40;99.90
51841;DHT22;37888;53.246;6.658;2023-09-19T10:16:46;18.50;99.90
51841;DHT22;37888;53.246;6.658;2023-09-19T10:19:16;18.50;99.90
51841;DHT22;37888;53.246;6.658;2023-09-19T10:21:48;18.70;99.90
51841;DHT22;37888;53.246;6.658;2023-09-19T10:24:16;18.80;99.90
51841;DHT22;37888;53.246;6.658;2023-09-19T10:26:44;18.80;99.90
51841;DHT22;37888;53.246;6.658;2023-09-19T10:29:13;18.80;99.90
51841;DHT22;37888;53.246;6.658;2023-09-19T10:31:39;19.00;99.90
51841;DHT22;37888;53.246;6.658;2023-09-19T10:34:14;19.10;99.90
51841;DHT22;37888;53.246;6.658;2023-09-19T10:36:44;19.10;99.90
51841;DHT22;37888;53.246;6.658;2023-09-19T10:39:11;19.00;99.90
51841;DHT22;37888;53.246;6.658;2023-09-19T10:41:39;18.90;99.90
51841;DHT22;37888;53.246;6.658;2023-09-19T10:44:05;18.80;99.90
51841;DHT22;37888;53.246;6.658;2023-09-19T10:46:32;18.90;99.90
51841;DHT22;37888;53.246;6.658;2023-09-19T10:49:02;18.90;99.90
51841;DHT22;37888;53.246;6.658;2023-09-19T10:51:33;19.00;99.90
51841;DHT22;37888;53.246;6.658;2023-09-19T10:54:11;19.10;99.90
51841;DHT22;37888;53.246;6.658;2023-09-19T10:56:43;19.00;99.90
51841;DHT22;37888;53.246;6.658;2023-09-19T10:59:15;18.90;99.90
51841;DHT22;37888;53.246;6.658;2023-09-19T11:01:43;18.80;99.90
51841;DHT22;37888;53.246;6.658;2023-09-19T11:07:09;18.50;99.90
51841;DHT22;37888;53.246;6.658;2023-09-19T11:15:07;18.50;99.90
51841;DHT22;37888;53.246;6.658;2023-09-19T11:17:41;18.50;99.90
51841;DHT22;37888;53.246;6.658;2023-09-19T11:30:51;18.40;99.90
51841;DHT22;37888;53.246;6.658;2023-09-19T11:36:08;18.50;99.90
51841;DHT22;37888;53.246;6.658;2023-09-19T11:44:39;18.20;99.90
51841;DHT22;37888;53.246;6.658;2023-09-19T11:46:54;18.20;99.90
51841;DHT22;37888;53.246;6.658;2023-09-19T11:49:27;18.20;99.90
51841;DHT22;37888;53.246;6.658;2023-09-19T11:51:56;18.30;99.90
51841;DHT22;37888;53.246;6.658;2023-09-19T11:54:22;18.20;99.90
51841;DHT22;37888;53.246;6.658;2023-09-19T11:56:49;18.20;99.90
51841;DHT22;37888;53.246;6.658;2023-09-19T11:59:23;18.20;99.90
51841;DHT22;37888;53.246;6.658;2023-09-19T12:01:59;18.30;99.90
51841;DHT22;37888;53.246;6.658;2023-09-19T12:04:42;18.30;99.90
51841;DHT22;37888;53.246;6.658;2023-09-19T12:07:15;18.20;99.90
51841;DHT22;37888;53.246;6.658;2023-09-19T12:09:44;18.20;99.90
51841;DHT22;37888;53.246;6.658;2023-09-19T12:12:24;18.20;99.90
51841;DHT22;37888;53.246;6.658;2023-09-19T12:14:53;18.10;99.90
51841;DHT22;37888;53.246;6.658;2023-09-19T12:17:19;18.00;99.90
51841;DHT22;37888;53.246;6.658;2023-09-19T12:19:53;17.90;99.90
51841;DHT22;37888;53.246;6.658;2023-09-19T12:22:19;17.90;99.90
51841;DHT22;37888;53.246;6.658;2023-09-19T12:24:46;17.90;99.90
51841;DHT22;37888;53.246;6.658;2023-09-19T12:27:13;17.90;99.90
51841;DHT22;37888;53.246;6.658;2023-09-19T12:29:47;17.80;99.90
51841;DHT22;37888;53.246;6.658;2023-09-19T12:32:16;17.80;99.90
51841;DHT22;37888;53.246;6.658;2023-09-19T12:34:51;17.80;99.90
51841;DHT22;37888;53.246;6.658;2023-09-19T12:37:18;17.90;99.90
51841;DHT22;37888;53.246;6.658;2023-09-19T12:40:07;17.90;99.90
51841;DHT22;37888;53.246;6.658;2023-09-19T12:43:12;17.80;99.90
51841;DHT22;37888;53.246;6.658;2023-09-19T12:45:42;17.70;99.90
51841;DHT22;37888;53.246;6.658;2023-09-19T12:48:20;17.70;99.90
51841;DHT22;37888;53.246;6.658;2023-09-19T12:51:06;17.70;99.90
51841;DHT22;37888;53.246;6.658;2023-09-19T12:53:43;17.70;99.90
51841;DHT22;37888;53.246;6.658;2023-09-19T12:56:11;18.20;99.90
51841;DHT22;37888;53.246;6.658;2023-09-19T12:58:56;17.70;99.90
51841;DHT22;37888;53.246;6.658;2023-09-19T13:01:25;17.70;99.90
51841;DHT22;37888;53.246;6.658;2023-09-19T13:04:17;17.70;99.90
51841;DHT22;37888;53.246;6.658;2023-09-19T13:06:48;17.70;99.90
51841;DHT22;37888;53.246;6.658;2023-09-19T13:09:21;17.70;99.90
51841;DHT22;37888;53.246;6.658;2023-09-19T13:11:47;17.70;99.90
51841;DHT22;37888;53.246;6.658;2023-09-19T13:14:26;17.70;99.90
51841;DHT22;37888;53.246;6.658;2023-09-19T13:17:09;17.70;99.90
51841;DHT22;37888;53.246;6.658;2023-09-19T13:19:43;17.60;99.90
51841;DHT22;37888;53.246;6.658;2023-09-19T13:25:13;17.70;99.90
51841;DHT22;37888;53.246;6.658;2023-09-19T13:27:48;17.70;99.90
51841;DHT22;37888;53.246;6.658;2023-09-19T13:30:20;17.70;99.90
51841;DHT22;37888;53.246;6.658;2023-09-19T13:32:47;17.70;99.90
51841;DHT22;37888;53.246;6.658;2023-09-19T13:35:14;17.60;99.90
51841;DHT22;37888;53.246;6.658;2023-09-19T13:37:41;18.20;99.90
51841;DHT22;37888;53.246;6.658;2023-09-19T13:40:08;17.50;99.90
51841;DHT22;37888;53.246;6.658;2023-09-19T13:42:35;17.50;99.90
51841;DHT22;37888;53.246;6.658;2023-09-19T13:45:02;17.40;99.90
51841;DHT22;37888;53.246;6.658;2023-09-19T13:47:33;17.40;99.90
51841;DHT22;37888;53.246;6.658;2023-09-19T13:50:01;17.40;99.90
51841;DHT22;37888;53.246;6.658;2023-09-19T13:52:30;17.40;99.90
51841;DHT22;37888;53.246;6.658;2023-09-19T13:54:57;17.40;99.90
51841;DHT22;37888;53.246;6.658;2023-09-19T13:57:23;17.40;99.90
51841;DHT22;37888;53.246;6.658;2023-09-19T13:59:49;17.50;99.90
51841;DHT22;37888;53.246;6.658;2023-09-19T14:02:15;17.50;99.90
51841;DHT22;37888;53.246;6.658;2023-09-19T14:04:44;17.30;99.90
51841;DHT22;37888;53.246;6.658;2023-09-19T14:07:10;17.60;99.90
51841;DHT22;37888;53.246;6.658;2023-09-19T14:09:37;17.70;99.90
51841;DHT22;37888;53.246;6.658;2023-09-19T14:12:03;17.70;99.90
51841;DHT22;37888;53.246;6.658;2023-09-19T14:14:29;17.70;99.90
51841;DHT22;37888;53.246;6.658;2023-09-19T14:16:55;17.70;99.90
51841;DHT22;37888;53.246;6.658;2023-09-19T14:19:21;17.70;99.90
51841;DHT22;37888;53.246;6.658;2023-09-19T14:21:47;17.70;99.90
51841;DHT22;37888;53.246;6.658;2023-09-19T14:24:19;17.80;99.90
51841;DHT22;37888;53.246;6.658;2023-09-19T14:26:45;17.80;99.90
51841;DHT22;37888;53.246;6.658;2023-09-19T14:29:11;17.90;99.90
51841;DHT22;37888;53.246;6.658;2023-09-19T14:31:38;17.90;99.90
51841;DHT22;37888;53.246;6.658;2023-09-19T14:34:07;17.90;99.90
51841;DHT22;37888;53.246;6.658;2023-09-19T14:36:36;18.00;99.90
51841;DHT22;37888;53.246;6.658;2023-09-19T14:39:02;17.90;99.90
51841;DHT22;37888;53.246;6.658;2023-09-19T14:41:28;17.90;99.90
51841;DHT22;37888;53.246;6.658;2023-09-19T14:43:54;17.90;99.90
51841;DHT22;37888;53.246;6.658;2023-09-19T14:46:20;17.90;99.90
51841;DHT22;37888;53.246;6.658;2023-09-19T14:48:46;17.90;99.90
51841;DHT22;37888;53.246;6.658;2023-09-19T14:51:16;18.00;99.90
51841;DHT22;37888;53.246;6.658;2023-09-19T14:53:44;17.90;99.90
51841;DHT22;37888;53.246;6.658;2023-09-19T14:56:10;17.90;99.90
51841;DHT22;37888;53.246;6.658;2023-09-19T14:58:37;17.90;99.90
51841;DHT22;37888;53.246;6.658;2023-09-19T15:01:12;17.90;99.90
51841;DHT22;37888;53.246;6.658;2023-09-19T15:03:39;17.80;99.90
51841;DHT22;37888;53.246;6.658;2023-09-19T15:06:12;17.80;99.90
51841;DHT22;37888;53.246;6.658;2023-09-19T15:08:40;17.80;99.90
51841;DHT22;37888;53.246;6.658;2023-09-19T15:11:09;17.80;99.90
51841;DHT22;37888;53.246;6.658;2023-09-19T15:13:36;17.70;99.90
51841;DHT22;37888;53.246;6.658;2023-09-19T15:16:07;17.70;99.90
51841;DHT22;37888;53.246;6.658;2023-09-19T15:18:40;17.70;99.90
51841;DHT22;37888;53.246;6.658;2023-09-19T15:21:11;17.60;99.90
51841;DHT22;37888;53.246;6.658;2023-09-19T15:23:38;17.60;99.90
51841;DHT22;37888;53.246;6.658;2023-09-19T15:26:05;17.60;99.90
51841;DHT22;37888;53.246;6.658;2023-09-19T15:28:32;17.60;99.90
51841;DHT22;37888;53.246;6.658;2023-09-19T15:31:02;17.60;99.90
51841;DHT22;37888;53.246;6.658;2023-09-19T15:33:37;17.60;99.90
51841;DHT22;37888;53.246;6.658;2023-09-19T15:36:11;17.70;99.90
51841;DHT22;37888;53.246;6.658;2023-09-19T15:39:05;17.50;99.90
51841;DHT22;37888;53.246;6.658;2023-09-19T15:41:41;17.50;99.90
51841;DHT22;37888;53.246;6.658;2023-09-19T15:44:18;17.50;99.90
51841;DHT22;37888;53.246;6.658;2023-09-19T15:46:44;17.40;99.90
51841;DHT22;37888;53.246;6.658;2023-09-19T15:49:11;17.30;99.90
51841;DHT22;37888;53.246;6.658;2023-09-19T15:51:37;17.30;99.90
51841;DHT22;37888;53.246;6.658;2023-09-19T15:54:15;17.30;99.90
51841;DHT22;37888;53.246;6.658;2023-09-19T15:56:42;17.20;99.90
51841;DHT22;37888;53.246;6.658;2023-09-19T15:59:08;17.20;99.90
51841;DHT22;37888;53.246;6.658;2023-09-19T16:01:35;17.20;99.90
51841;DHT22;37888;53.246;6.658;2023-09-19T16:04:02;17.10;99.90
51841;DHT22;37888;53.246;6.658;2023-09-19T16:06:30;17.10;99.90
51841;DHT22;37888;53.246;6.658;2023-09-19T16:08:59;17.10;99.90
51841;DHT22;37888;53.246;6.658;2023-09-19T16:11:27;17.00;99.90
51841;DHT22;37888;53.246;6.658;2023-09-19T16:13:53;17.00;99.90
51841;DHT22;37888;53.246;6.658;2023-09-19T16:16:20;17.00;99.90
51841;DHT22;37888;53.246;6.658;2023-09-19T16:18:59;17.00;99.90
51841;DHT22;37888;53.246;6.658;2023-09-19T16:21:33;17.00;99.90
51841;DHT22;37888;53.246;6.658;2023-09-19T16:24:03;17.10;99.90
51841;DHT22;37888;53.246;6.658;2023-09-19T16:26:29;17.10;99.90
51841;DHT22;37888;53.246;6.658;2023-09-19T16:28:57;17.10;99.90
51841;DHT22;37888;53.246;6.658;2023-09-19T16:31:29;17.00;99.90
51841;DHT22;37888;53.246;6.658;2023-09-19T16:33:56;17.00;99.90
51841;DHT22;37888;53.246;6.658;2023-09-19T16:36:24;17.00;99.90
51841;DHT22;37888;53.246;6.658;2023-09-19T16:38:51;17.00;99.90
51841;DHT22;37888;53.246;6.658;2023-09-19T16:41:18;17.00;99.90
51841;DHT22;37888;53.246;6.658;2023-09-19T16:43:47;17.00;99.90
51841;DHT22;37888;53.246;6.658;2023-09-19T16:46:13;17.00;99.90
51841;DHT22;37888;53.246;6.658;2023-09-19T16:48:42;17.00;99.90